Time;durP1;ratioP1;P1;durP2;ratioP2;P2;SDS_P1;SDS_P2;PMS_P1;PMS_P2;Temp;Humidity;BMP_temperature;BMP_pressure;BME280_temperature;BME280_humidity;BME280_pressure;Samples;Min_cycle;Max_cycle;Signal;HPM_P1;HPM_P2
2023/05/19 12:58:42;;;;;;;6.70;1.90;;;19.20;62.00;;;;;;5067982;28;20360;-60
2023/05/19 13:01:16;;;;;;;4.85;1.92;;;19.10;64.60;;;;;;5066396;28;20025;-60
2023/05/19 13:03:42;;;;;;;5.75;2.10;;;19.40;64.70;;;;;;5054536;28;20388;-61
2023/05/19 13:06:09;;;;;;;6.40;1.98;;;19.60;62.20;;;;;;5060361;28;20020;-61
2023/05/19 13:08:35;;;;;;;4.50;1.67;;;19.70;62.70;;;;;;5061297;28;20047;-60
2023/05/19 13:11:01;;;;;;;5.07;2.10;;;19.90;61.30;;;;;;5065750;28;20028;-61
2023/05/19 13:13:27;;;;;;;4.35;2.50;;;20.10;59.80;;;;;;5060027;28;20552;-60
2023/05/19 13:15:52;;;;;;;5.28;2.05;;;20.20;58.10;;;;;;5056471;28;20037;-60
2023/05/19 13:18:18;;;;;;;4.30;1.80;;;20.20;57.00;;;;;;5063747;28;20112;-59
2023/05/19 13:20:45;;;;;;;7.68;1.75;;;20.20;56.30;;;;;;5060769;28;20489;-60
2023/05/19 13:23:12;;;;;;;4.00;1.75;;;20.00;57.00;;;;;;5068236;28;20024;-59
2023/05/19 13:25:38;;;;;;;4.25;1.70;;;20.00;56.90;;;;;;5068526;28;20021;-60
2023/05/19 13:28:04;;;;;;;5.10;1.80;;;20.00;56.70;;;;;;5068713;28;20048;-60
2023/05/19 13:30:34;;;;;;;3.53;1.40;;;20.10;56.30;;;;;;5066865;28;20036;-60
2023/05/19 13:33:00;;;;;;;6.40;1.97;;;20.20;56.00;;;;;;5063756;28;20017;-62
2023/05/19 13:35:25;;;;;;;3.97;1.60;;;20.40;56.80;;;;;;5067558;28;20021;-62
2023/05/19 13:37:51;;;;;;;2.47;1.63;;;20.60;56.50;;;;;;5065894;28;20136;-59
2023/05/19 13:40:17;;;;;;;4.40;1.63;;;20.70;54.60;;;;;;5066980;28;20378;-63
2023/05/19 13:42:44;;;;;;;3.55;1.52;;;20.80;54.00;;;;;;5067359;28;20483;-63
2023/05/19 13:45:10;;;;;;;6.47;2.08;;;20.80;54.60;;;;;;5065988;28;20028;-62
2023/05/19 13:47:36;;;;;;;1.85;1.40;;;20.80;55.40;;;;;;5067309;28;20082;-62
2023/05/19 13:50:03;;;;;;;5.32;1.77;;;20.80;54.10;;;;;;5066694;28;20497;-63
2023/05/19 13:52:29;;;;;;;5.18;1.70;;;20.80;53.70;;;;;;5065178;28;20086;-60
2023/05/19 13:54:55;;;;;;;4.75;1.83;;;20.90;54.30;;;;;;5065692;28;20055;-61
2023/05/19 13:57:25;;;;;;;4.10;2.10;;;20.90;54.60;;;;;;5064664;28;20127;-61
2023/05/19 13:59:51;;;;;;;5.93;2.10;;;21.00;54.40;;;;;;5062383;28;20120;-63
2023/05/19 14:02:17;;;;;;;3.65;1.50;;;20.80;52.00;;;;;;5062716;28;20028;-61
2023/05/19 14:04:42;;;;;;;4.35;2.10;;;20.60;52.10;;;;;;5058970;28;20044;-62
2023/05/19 14:07:09;;;;;;;8.55;2.35;;;20.60;54.30;;;;;;5051824;28;20043;-61
2023/05/19 14:09:35;;;;;;;5.65;1.90;;;20.80;53.80;;;;;;5050433;28;20028;-62
2023/05/19 14:12:01;;;;;;;4.22;1.92;;;20.90;52.40;;;;;;5047201;28;20021;-67
2023/05/19 14:14:26;;;;;;;5.38;1.60;;;21.00;55.30;;;;;;5049513;28;20009;-62
2023/05/19 14:16:52;;;;;;;5.57;1.73;;;21.10;53.80;;;;;;5047153;28;20032;-61
2023/05/19 14:19:18;;;;;;;5.97;2.33;;;21.00;53.20;;;;;;5047051;28;20025;-64
2023/05/19 14:21:43;;;;;;;3.90;1.60;;;20.90;53.90;;;;;;5047685;28;20079;-63
2023/05/19 14:24:09;;;;;;;3.38;1.58;;;20.90;54.80;;;;;;5042079;28;20032;-65
2023/05/19 14:26:35;;;;;;;5.20;1.70;;;21.10;53.70;;;;;;5046706;28;20029;-65
2023/05/19 14:29:02;;;;;;;4.40;2.05;;;21.20;54.40;;;;;;5045459;28;20174;-71
2023/05/19 14:31:28;;;;;;;6.38;2.00;;;21.40;52.00;;;;;;5054238;28;20484;-72
2023/05/19 14:33:53;;;;;;;8.00;2.05;;;21.50;54.00;;;;;;5041292;28;20029;-62
2023/05/19 14:36:19;;;;;;;6.03;1.70;;;21.70;51.90;;;;;;5051830;28;20021;-63
2023/05/19 14:38:45;;;;;;;4.68;1.90;;;21.90;52.70;;;;;;5050559;28;20030;-65
2023/05/19 14:41:10;;;;;;;3.95;1.67;;;22.40;51.50;;;;;;5048578;28;20024;-64
2023/05/19 14:43:36;;;;;;;4.07;1.73;;;22.80;49.30;;;;;;5048385;28;20458;-61
2023/05/19 14:46:02;;;;;;;3.22;1.67;;;22.80;47.80;;;;;;5034231;28;20026;-61
2023/05/19 14:48:27;;;;;;;3.95;1.63;;;22.80;48.50;;;;;;5040819;28;20110;-64
2023/05/19 14:50:53;;;;;;;4.93;1.75;;;23.00;47.90;;;;;;5045811;28;20032;-61
2023/05/19 14:53:18;;;;;;;3.10;1.58;;;23.40;47.50;;;;;;5047872;28;20021;-65
2023/05/19 14:55:47;;;;;;;4.75;1.67;;;23.90;47.90;;;;;;5043939;28;20021;-63
2023/05/19 14:58:12;;;;;;;5.50;2.65;;;24.40;46.80;;;;;;5022030;28;20046;-60
2023/05/19 15:00:38;;;;;;;6.25;1.80;;;24.30;45.90;;;;;;5027812;28;20025;-61
2023/05/19 15:03:04;;;;;;;4.07;2.00;;;23.80;45.30;;;;;;5024507;28;20029;-60
2023/05/19 15:05:29;;;;;;;4.03;2.50;;;23.30;46.30;;;;;;5019890;28;20104;-61
2023/05/19 15:07:55;;;;;;;4.13;1.83;;;23.40;46.20;;;;;;5020141;28;20475;-60
2023/05/19 15:10:21;;;;;;;3.53;1.67;;;24.00;46.00;;;;;;5025066;28;20036;-61
2023/05/19 15:12:47;;;;;;;4.95;2.10;;;24.60;43.50;;;;;;5017651;28;20088;-61
2023/05/19 15:15:14;;;;;;;4.18;1.80;;;24.90;43.60;;;;;;5030034;28;20037;-61
2023/05/19 15:17:40;;;;;;;5.80;1.70;;;25.30;43.80;;;;;;5030718;28;20045;-61
2023/05/19 15:20:06;;;;;;;4.68;1.63;;;25.70;43.80;;;;;;5023987;28;20025;-61
2023/05/19 15:22:32;;;;;;;4.60;1.67;;;25.90;41.90;;;;;;5029578;28;20044;-61
2023/05/19 15:24:58;;;;;;;2.70;1.40;;;26.10;40.50;;;;;;5019829;28;20044;-61
2023/05/19 15:27:24;;;;;;;2.83;1.10;;;26.30;40.90;;;;;;5032553;28;20021;-61
2023/05/19 15:29:49;;;;;;;3.58;1.50;;;26.30;40.00;;;;;;5029543;28;20474;-61
2023/05/19 15:32:15;;;;;;;2.72;1.40;;;26.40;40.30;;;;;;5017138;28;20091;-61
2023/05/19 15:34:40;;;;;;;4.25;1.42;;;26.70;41.40;;;;;;5019078;28;20028;-64
2023/05/19 15:37:06;;;;;;;4.28;1.50;;;27.10;39.90;;;;;;5026660;28;20368;-61
2023/05/19 15:39:32;;;;;;;5.50;1.40;;;26.80;39.00;;;;;;5027687;28;20393;-60
2023/05/19 15:41:58;;;;;;;4.22;1.30;;;26.20;40.00;;;;;;5031586;28;20104;-62
2023/05/19 15:44:23;;;;;;;4.32;1.60;;;25.50;41.10;;;;;;5030257;28;20112;-61
2023/05/19 15:46:49;;;;;;;3.72;1.45;;;25.40;41.70;;;;;;5031218;28;20025;-62
2023/05/19 15:49:16;;;;;;;4.10;1.58;;;26.00;42.40;;;;;;5031198;28;20018;-61
2023/05/19 15:51:42;;;;;;;5.60;1.67;;;26.90;42.10;;;;;;5028817;28;20021;-63
2023/05/19 15:54:08;;;;;;;4.28;1.65;;;27.80;39.80;;;;;;5031889;28;20024;-62
2023/05/19 15:56:34;;;;;;;2.42;1.65;;;28.00;39.40;;;;;;5022867;28;20511;-68
2023/05/19 15:58:59;;;;;;;3.42;1.45;;;27.70;39.60;;;;;;5070081;28;20073;-63
2023/05/19 16:01:25;;;;;;;2.78;1.23;;;26.90;39.00;;;;;;5067415;28;20012;-66
2023/05/19 16:03:50;;;;;;;4.07;1.50;;;26.00;40.20;;;;;;5069809;28;20056;-65
2023/05/19 16:06:16;;;;;;;5.40;1.83;;;25.20;41.80;;;;;;5069524;28;20055;-64
2023/05/19 16:08:42;;;;;;;3.25;1.67;;;24.50;43.20;;;;;;5069828;28;20500;-64
2023/05/19 16:11:09;;;;;;;4.18;1.58;;;24.00;44.00;;;;;;5066392;28;20028;-64
2023/05/19 16:13:35;;;;;;;4.30;1.58;;;24.20;45.40;;;;;;5066438;28;20021;-65
2023/05/19 16:16:01;;;;;;;3.75;1.40;;;25.20;42.20;;;;;;5068530;28;20147;-64
2023/05/19 16:18:28;;;;;;;3.67;1.50;;;26.10;42.40;;;;;;5069394;28;20123;-67
2023/05/19 16:20:54;;;;;;;5.15;1.50;;;26.90;40.60;;;;;;5070566;28;20020;-67
2023/05/19 16:23:19;;;;;;;5.88;1.42;;;27.40;38.20;;;;;;5054094;28;20020;-65
2023/05/19 16:25:47;;;;;;;3.35;1.60;;;27.70;38.00;;;;;;5070541;28;20100;-61
2023/05/19 16:28:13;;;;;;;4.18;1.30;;;27.40;38.10;;;;;;5072144;28;20024;-62
2023/05/19 16:30:41;;;;;;;3.53;1.63;;;26.80;39.40;;;;;;5071279;28;20097;-61
2023/05/19 16:33:06;;;;;;;4.97;1.77;;;27.00;40.80;;;;;;5071039;28;20115;-62
2023/05/19 16:35:32;;;;;;;5.45;1.30;;;27.50;38.10;;;;;;5052905;28;20529;-63
2023/05/19 16:37:58;;;;;;;4.93;1.83;;;28.00;37.00;;;;;;5071396;28;20036;-61
2023/05/19 16:40:23;;;;;;;3.65;1.40;;;28.60;37.30;;;;;;5069042;28;20021;-61
2023/05/19 16:42:51;;;;;;;4.68;2.00;;;28.90;36.70;;;;;;5069364;28;20035;-64
2023/05/19 16:45:17;;;;;;;3.80;1.70;;;29.20;36.50;;;;;;5059542;28;20025;-64
2023/05/19 16:47:43;;;;;;;4.40;1.70;;;29.00;36.90;;;;;;5071322;28;20042;-62
2023/05/19 16:50:09;;;;;;;3.17;1.65;;;28.20;37.20;;;;;;5071020;28;20009;-61
2023/05/19 16:52:35;;;;;;;3.88;1.40;;;27.00;38.20;;;;;;5071202;28;20104;-63
2023/05/19 16:55:01;;;;;;;4.15;1.52;;;25.90;39.60;;;;;;5067535;28;20548;-60
2023/05/19 16:57:26;;;;;;;2.53;1.58;;;25.00;41.10;;;;;;5071719;28;20044;-60
2023/05/19 16:59:52;;;;;;;3.58;1.67;;;24.30;42.20;;;;;;5069311;28;20032;-64
2023/05/19 17:02:18;;;;;;;4.07;1.52;;;23.90;42.80;;;;;;5064689;28;20485;-59
2023/05/19 17:04:43;;;;;;;3.10;1.45;;;24.30;43.20;;;;;;5068288;28;20036;-64
2023/05/19 17:07:14;;;;;;;3.70;1.55;;;25.40;42.00;;;;;;5070392;28;20021;-60
2023/05/19 17:09:40;;;;;;;;;;;26.50;39.90;;;;;;5068501;28;20040;-60
2023/05/19 17:12:06;;;;;;;3.83;1.42;;;27.30;38.00;;;;;;5054347;28;19909;-59
2023/05/19 17:14:32;;;;;;;2.33;1.20;;;28.00;37.90;;;;;;5050513;28;20029;-59
2023/05/19 17:16:58;;;;;;;2.40;1.17;;;28.30;36.80;;;;;;5051394;28;20024;-63
2023/05/19 17:19:23;;;;;;;3.15;1.33;;;28.40;36.90;;;;;;5060020;28;20187;-67
2023/05/19 17:21:49;;;;;;;3.30;1.30;;;28.40;36.50;;;;;;5052957;28;20022;-60
2023/05/19 17:24:15;;;;;;;2.63;1.30;;;27.90;37.60;;;;;;5069196;28;20012;-61
2023/05/19 17:26:40;;;;;;;5.30;1.67;;;27.20;38.40;;;;;;5069657;28;20051;-63
2023/05/19 17:29:06;;;;;;;3.38;1.42;;;26.80;39.90;;;;;;5069611;28;20031;-62
2023/05/19 17:31:31;;;;;;;2.95;1.27;;;27.20;39.10;;;;;;5066970;28;20091;-62
2023/05/19 17:33:57;;;;;;;1.65;1.10;;;27.70;38.80;;;;;;5071567;28;20028;-66
2023/05/19 17:36:23;;;;;;;6.68;2.40;;;28.20;37.70;;;;;;5071274;28;20074;-62
2023/05/19 17:38:48;;;;;;;1.45;0.90;;;28.40;36.50;;;;;;5070313;28;20480;-67
2023/05/19 17:41:14;;;;;;;5.93;2.05;;;27.90;36.50;;;;;;5052155;28;20086;-66
2023/05/19 17:43:40;;;;;;;5.50;1.60;;;27.00;38.70;;;;;;5024834;28;20029;-62
2023/05/19 17:46:06;;;;;;;2.22;1.23;;;26.10;39.50;;;;;;5054449;28;20040;-65
2023/05/19 17:48:32;;;;;;;4.40;1.10;;;25.10;40.50;;;;;;5050074;28;20063;-61
2023/05/19 17:50:58;;;;;;;3.10;1.40;;;24.20;41.70;;;;;;5073469;28;20029;-63
2023/05/19 17:53:24;;;;;;;6.25;1.58;;;23.50;42.70;;;;;;5056328;28;20070;-65
2023/05/19 17:55:54;;;;;;;4.57;1.48;;;23.00;43.30;;;;;;5074271;28;20122;-62
2023/05/19 17:58:20;;;;;;;2.97;1.08;;;22.60;43.60;;;;;;5056311;28;20135;-61
2023/05/19 18:00:46;;;;;;;2.83;1.15;;;22.20;44.30;;;;;;5074509;28;20064;-63
2023/05/19 18:03:11;;;;;;;5.57;1.65;;;22.30;44.30;;;;;;5049401;28;20020;-61
2023/05/19 18:05:38;;;;;;;2.78;1.42;;;23.20;43.70;;;;;;5069349;28;20021;-61
2023/05/19 18:08:08;;;;;;;3.40;1.55;;;24.10;42.70;;;;;;5068897;28;20075;-62
2023/05/19 18:10:38;;;;;;;3.67;1.30;;;25.10;41.80;;;;;;5055681;28;20024;-61
2023/05/19 18:13:05;;;;;;;5.50;1.50;;;25.70;40.90;;;;;;5074814;28;20021;-60
2023/05/19 18:15:32;;;;;;;2.58;1.77;;;25.60;40.10;;;;;;5053123;28;20044;-61
2023/05/19 18:17:58;;;;;;;2.85;1.40;;;24.80;41.30;;;;;;5064405;28;20048;-62
2023/05/19 18:20:23;;;;;;;6.20;2.53;;;24.00;42.20;;;;;;5074060;28;20070;-60
2023/05/19 18:22:49;;;;;;;2.53;1.35;;;23.30;43.90;;;;;;5054599;28;20040;-62
2023/05/19 18:25:17;;;;;;;4.22;1.52;;;22.80;44.50;;;;;;5069187;28;20025;-61
2023/05/19 18:27:46;;;;;;;3.67;1.42;;;22.50;44.90;;;;;;5066186;28;20033;-60
2023/05/19 18:30:12;;;;;;;2.25;1.30;;;22.10;45.80;;;;;;5042327;28;20358;-60
2023/05/19 18:32:37;;;;;;;2.90;1.50;;;21.60;46.00;;;;;;5073843;28;20028;-62
2023/05/19 18:35:03;;;;;;;3.20;1.40;;;21.30;46.80;;;;;;5044510;28;20543;-63
2023/05/19 18:37:29;;;;;;;3.70;1.70;;;21.10;47.40;;;;;;5059046;28;20039;-60
2023/05/19 18:39:55;;;;;;;2.50;1.58;;;20.80;47.60;;;;;;5047512;28;20005;-68
2023/05/19 18:42:21;;;;;;;4.03;1.63;;;20.60;48.00;;;;;;5051589;28;20043;-60
2023/05/19 18:44:47;;;;;;;2.97;1.20;;;20.40;48.80;;;;;;5066202;28;20020;-60
2023/05/19 18:47:18;;;;;;;3.63;1.40;;;20.30;48.80;;;;;;5054024;28;20085;-62
2023/05/19 18:49:44;;;;;;;3.95;1.52;;;20.10;48.90;;;;;;5053106;28;20025;-60
2023/05/19 18:52:10;;;;;;;2.47;1.30;;;19.90;49.10;;;;;;5062973;28;20366;-62
2023/05/19 18:54:36;;;;;;;1.80;1.15;;;19.80;49.30;;;;;;5045085;28;20024;-60
2023/05/19 18:57:02;;;;;;;2.58;1.30;;;19.70;49.60;;;;;;5068205;28;20048;-61
2023/05/19 18:59:28;;;;;;;2.50;1.38;;;19.50;49.70;;;;;;5041549;28;20036;-63
2023/05/19 19:01:54;;;;;;;2.88;1.30;;;19.40;50.00;;;;;;5071746;28;20028;-61
2023/05/19 19:04:20;;;;;;;4.75;1.70;;;19.40;50.30;;;;;;5055231;28;20021;-63
2023/05/19 19:06:47;;;;;;;4.50;2.20;;;19.30;50.30;;;;;;5055468;28;20024;-60
2023/05/19 19:09:13;;;;;;;7.15;2.13;;;19.10;50.50;;;;;;5071704;28;20029;-60
2023/05/19 19:11:39;;;;;;;7.90;1.50;;;19.00;50.70;;;;;;5039765;28;20010;-64
2023/05/19 19:14:05;;;;;;;4.07;1.60;;;18.80;51.00;;;;;;5061537;28;20033;-62
2023/05/19 19:16:31;;;;;;;3.20;1.70;;;18.70;51.30;;;;;;5074168;28;20020;-61
2023/05/19 19:18:57;;;;;;;2.70;1.40;;;18.60;51.70;;;;;;5051209;28;20017;-60
2023/05/19 19:21:23;;;;;;;2.55;1.38;;;18.50;51.90;;;;;;5073925;28;20024;-60
2023/05/19 19:23:55;;;;;;;3.53;1.33;;;18.50;52.30;;;;;;5070181;28;20373;-60
2023/05/19 19:26:27;;;;;;;2.53;1.50;;;18.40;52.50;;;;;;5065890;28;20032;-61
2023/05/19 19:28:54;;;;;;;3.10;1.38;;;18.40;52.60;;;;;;5068192;28;20035;-61
2023/05/19 19:31:20;;;;;;;3.17;1.38;;;18.30;52.80;;;;;;5035567;28;20020;-66
2023/05/19 19:33:45;;;;;;;5.20;1.60;;;18.20;53.00;;;;;;5053285;28;20374;-61
2023/05/19 19:36:11;;;;;;;3.70;2.13;;;18.10;53.20;;;;;;5071134;28;20051;-61
2023/05/19 19:38:37;;;;;;;3.25;1.45;;;18.00;53.40;;;;;;5049894;28;20029;-61
2023/05/19 19:41:02;;;;;;;3.40;1.73;;;18.00;53.60;;;;;;5066330;28;20462;-62
2023/05/19 19:43:28;;;;;;;3.95;1.67;;;17.90;54.00;;;;;;5068491;28;20043;-64
2023/05/19 19:45:59;;;;;;;4.25;1.80;;;17.80;54.20;;;;;;5071510;28;20473;-61
2023/05/19 19:48:25;;;;;;;;;;;17.70;54.30;;;;;;5054161;28;20029;-61
2023/05/19 19:50:54;;;;;;;3.78;1.42;;;17.70;54.40;;;;;;5072481;28;20280;-60
2023/05/19 19:53:20;;;;;;;3.53;1.42;;;17.60;54.70;;;;;;5071990;28;20016;-61
2023/05/19 19:55:56;;;;;;;2.72;1.30;;;17.50;55.00;;;;;;5054033;28;20047;-59
2023/05/19 19:58:21;;;;;;;4.35;1.50;;;17.50;55.20;;;;;;5070670;28;20388;-61
2023/05/19 20:00:47;;;;;;;2.83;1.63;;;17.40;55.30;;;;;;5073077;28;20025;-60
2023/05/19 20:03:12;;;;;;;3.90;1.63;;;17.40;55.70;;;;;;5071119;28;20013;-61
2023/05/19 20:05:38;;;;;;;3.08;1.50;;;17.20;55.70;;;;;;5073213;28;20042;-60
2023/05/19 20:08:04;;;;;;;3.53;1.42;;;17.20;55.70;;;;;;5070464;28;20029;-61
2023/05/19 20:10:30;;;;;;;2.50;1.42;;;17.10;56.00;;;;;;5071120;28;20032;-63
2023/05/19 20:12:57;;;;;;;3.72;1.55;;;17.10;56.20;;;;;;5072577;28;20021;-63
2023/05/19 20:15:23;;;;;;;3.03;1.52;;;17.00;56.40;;;;;;5051168;28;20422;-60
2023/05/19 20:17:48;;;;;;;4.97;1.70;;;16.90;56.40;;;;;;5059936;28;20489;-61
2023/05/19 20:20:14;;;;;;;3.85;1.42;;;16.80;56.50;;;;;;5071213;28;20027;-63
2023/05/19 20:22:40;;;;;;;2.65;1.67;;;16.80;56.80;;;;;;5071507;28;20016;-60
2023/05/19 20:25:06;;;;;;;2.65;1.65;;;16.70;56.90;;;;;;5071769;28;20023;-61
2023/05/19 20:27:32;;;;;;;3.22;1.30;;;16.70;57.10;;;;;;5073122;28;20041;-60
2023/05/19 20:29:57;;;;;;;2.65;1.50;;;16.60;57.30;;;;;;5053838;28;20543;-61
2023/05/19 20:32:23;;;;;;;2.47;1.10;;;16.50;57.70;;;;;;5072703;28;20047;-60
2023/05/19 20:34:48;;;;;;;3.83;1.85;;;16.40;58.00;;;;;;5071393;28;20358;-60
2023/05/19 20:37:14;;;;;;;3.30;1.70;;;16.30;58.30;;;;;;5071676;28;20082;-64
2023/05/19 20:39:40;;;;;;;4.88;1.85;;;16.20;58.50;;;;;;5070601;28;20086;-60
2023/05/19 20:42:06;;;;;;;3.95;1.55;;;16.20;58.60;;;;;;5069748;28;20028;-59
2023/05/19 20:44:32;;;;;;;6.00;2.13;;;16.10;58.80;;;;;;5071876;28;20028;-59
2023/05/19 20:46:57;;;;;;;4.50;1.55;;;16.10;59.10;;;;;;5067338;28;20052;-61
2023/05/19 20:49:23;;;;;;;3.33;1.70;;;16.00;59.20;;;;;;5062858;28;20405;-59
2023/05/19 20:51:49;;;;;;;4.10;1.58;;;15.90;59.50;;;;;;5044125;28;20033;-60
2023/05/19 20:54:15;;;;;;;5.30;1.50;;;15.80;60.00;;;;;;5066705;28;20025;-61
2023/05/19 20:56:41;;;;;;;4.15;1.92;;;15.70;60.30;;;;;;5053158;28;20047;-60
2023/05/19 20:59:06;;;;;;;4.68;1.80;;;15.70;60.80;;;;;;5060572;28;20028;-60
2023/05/19 21:01:32;;;;;;;6.80;1.60;;;15.50;60.90;;;;;;5066624;28;20032;-59
2023/05/19 21:03:59;;;;;;;3.60;1.42;;;15.40;61.00;;;;;;5071073;28;20119;-60
2023/05/19 21:06:25;;;;;;;3.75;1.80;;;15.40;61.60;;;;;;5071751;28;20495;-61
2023/05/19 21:08:50;;;;;;;2.92;1.40;;;15.30;61.80;;;;;;5071002;28;20060;-61
2023/05/19 21:11:16;;;;;;;3.83;1.60;;;15.20;62.40;;;;;;5072148;28;20472;-63
2023/05/19 21:13:42;;;;;;;2.78;1.60;;;15.10;63.30;;;;;;5071508;28;20067;-60
2023/05/19 21:16:07;;;;;;;3.72;2.03;;;15.20;63.80;;;;;;5071275;28;20470;-61
2023/05/19 21:18:33;;;;;;;2.55;1.67;;;15.10;64.40;;;;;;5071420;28;20405;-60
2023/05/19 21:21:02;;;;;;;8.05;2.17;;;15.00;64.70;;;;;;5075153;28;20039;-59
2023/05/19 21:23:28;;;;;;;2.83;1.60;;;15.10;65.90;;;;;;5075719;28;20029;-61
2023/05/19 21:25:53;;;;;;;7.20;2.50;;;15.00;66.20;;;;;;5073859;28;20039;-60
2023/05/19 21:28:19;;;;;;;7.80;2.67;;;15.00;67.40;;;;;;5056207;28;20119;-61
2023/05/19 21:30:48;;;;;;;6.05;2.22;;;15.00;67.80;;;;;;5044549;28;20021;-60
2023/05/19 21:33:14;;;;;;;5.72;1.80;;;15.00;68.20;;;;;;5076087;28;20550;-61
2023/05/19 21:35:40;;;;;;;5.03;2.20;;;14.90;68.90;;;;;;5057864;28;20393;-60
2023/05/19 21:38:06;;;;;;;4.03;1.90;;;14.90;69.30;;;;;;5075318;28;20025;-63
2023/05/19 21:40:32;;;;;;;6.15;2.10;;;14.80;70.20;;;;;;5073593;28;20027;-59
2023/05/19 21:42:57;;;;;;;5.75;2.13;;;14.80;71.50;;;;;;5058459;28;20032;-60
2023/05/19 21:45:23;;;;;;;7.57;2.15;;;14.70;71.30;;;;;;5075273;28;20025;-60
2023/05/19 21:47:48;;;;;;;5.13;2.03;;;14.70;71.90;;;;;;5073324;28;20092;-59
2023/05/19 21:50:16;;;;;;;5.18;2.33;;;14.70;72.10;;;;;;5053630;28;20020;-59
2023/05/19 21:52:41;;;;;;;7.30;2.45;;;14.60;72.80;;;;;;5044374;28;20082;-59
2023/05/19 21:55:08;;;;;;;6.45;2.60;;;14.60;73.30;;;;;;5045249;28;20017;-59
2023/05/19 21:57:34;;;;;;;7.03;2.75;;;14.60;73.60;;;;;;5068006;28;20485;-60
2023/05/19 21:59:59;;;;;;;5.75;2.50;;;14.60;74.20;;;;;;5070234;28;20081;-61
2023/05/19 22:02:25;;;;;;;10.70;2.60;;;14.50;74.80;;;;;;5067901;28;20358;-60
2023/05/19 22:04:51;;;;;;;5.45;2.15;;;14.50;75.10;;;;;;5060010;28;20066;-61
2023/05/19 22:07:16;;;;;;;6.45;2.17;;;14.50;75.90;;;;;;5075185;28;20039;-59
2023/05/19 22:09:42;;;;;;;7.50;2.38;;;14.40;76.70;;;;;;5073221;28;20063;-60
2023/05/19 22:12:07;;;;;;;6.57;2.63;;;14.30;77.60;;;;;;5063501;28;20032;-59
2023/05/19 22:14:34;;;;;;;6.97;2.13;;;14.20;78.30;;;;;;5070003;28;20067;-66
2023/05/19 22:17:00;;;;;;;5.15;2.30;;;14.20;79.00;;;;;;5054090;28;20643;-59
2023/05/19 22:19:25;;;;;;;6.25;2.47;;;14.10;79.40;;;;;;5075736;28;20045;-62
2023/05/19 22:21:51;;;;;;;8.57;3.30;;;14.10;80.10;;;;;;5072812;28;20033;-59
2023/05/19 22:24:17;;;;;;;9.25;2.72;;;14.10;80.70;;;;;;5071955;28;20052;-59
2023/05/19 22:26:43;;;;;;;9.95;2.80;;;14.10;81.00;;;;;;5039189;28;20595;-59
2023/05/19 22:29:13;;;;;;;6.03;2.38;;;14.00;81.70;;;;;;5073854;28;20029;-60
2023/05/19 22:31:39;;;;;;;8.25;2.60;;;14.00;82.40;;;;;;5072903;28;20490;-59
2023/05/19 22:34:05;;;;;;;6.35;2.80;;;13.90;83.10;;;;;;5067553;28;20073;-60
2023/05/19 22:36:31;;;;;;;6.60;2.70;;;13.90;83.80;;;;;;5056055;28;20036;-59
2023/05/19 22:38:56;;;;;;;7.60;2.55;;;13.80;84.40;;;;;;5069213;28;20017;-61
2023/05/19 22:41:22;;;;;;;6.07;2.60;;;13.80;84.90;;;;;;5071097;28;20077;-61
2023/05/19 22:43:48;;;;;;;6.03;2.75;;;13.80;85.70;;;;;;5072413;28;20016;-61
2023/05/19 22:46:13;;;;;;;8.82;2.90;;;13.70;86.40;;;;;;5064997;28;20017;-60
2023/05/19 22:48:39;;;;;;;5.30;3.17;;;13.60;87.50;;;;;;5066804;28;20039;-60
2023/05/19 22:51:05;;;;;;;5.22;2.78;;;13.60;88.60;;;;;;5041251;28;20108;-60
2023/05/19 22:53:30;;;;;;;5.65;2.45;;;13.60;89.60;;;;;;5071737;28;20029;-60
2023/05/19 22:55:56;;;;;;;7.20;2.88;;;13.50;90.40;;;;;;5073440;28;20029;-60
2023/05/19 22:58:21;;;;;;;10.07;3.15;;;13.40;91.10;;;;;;5073357;28;20056;-60
2023/05/19 23:00:47;;;;;;;8.60;3.30;;;13.30;91.60;;;;;;5073118;28;20599;-60
2023/05/19 23:03:13;;;;;;;9.32;2.67;;;13.30;92.20;;;;;;5073321;28;20031;-60
2023/05/19 23:05:39;;;;;;;5.55;3.15;;;13.20;92.60;;;;;;5069402;28;20078;-60
2023/05/19 23:08:05;;;;;;;5.50;2.45;;;13.20;93.00;;;;;;5070860;28;20034;-60
2023/05/19 23:10:30;;;;;;;7.05;3.03;;;13.20;93.30;;;;;;5073645;28;20020;-61
2023/05/19 23:12:56;;;;;;;8.25;3.13;;;13.20;93.60;;;;;;5065138;28;20087;-60
2023/05/19 23:15:21;;;;;;;4.20;2.63;;;13.20;93.90;;;;;;5067279;28;20070;-61
2023/05/19 23:17:47;;;;;;;4.68;2.50;;;13.10;94.20;;;;;;5072472;28;20433;-62
2023/05/19 23:20:13;;;;;;;8.02;3.03;;;13.10;94.40;;;;;;5073013;28;20043;-64
2023/05/19 23:22:38;;;;;;;6.20;3.00;;;13.10;94.70;;;;;;5072893;28;20020;-61
2023/05/19 23:25:06;;;;;;;4.50;2.53;;;13.10;95.30;;;;;;5063287;28;20028;-61
2023/05/19 23:27:33;;;;;;;6.38;2.97;;;13.00;95.60;;;;;;5057800;28;20432;-62
2023/05/19 23:29:58;;;;;;;7.80;3.13;;;13.00;96.00;;;;;;5071508;28;20016;-61
2023/05/19 23:32:24;;;;;;;10.23;3.28;;;13.00;96.50;;;;;;5067589;28;20077;-62
2023/05/19 23:34:50;;;;;;;5.90;2.50;;;12.90;96.80;;;;;;5059872;28;20373;-61
2023/05/19 23:37:15;;;;;;;7.18;3.05;;;12.90;97.30;;;;;;5070635;28;20125;-61
2023/05/19 23:39:42;;;;;;;6.78;2.60;;;12.80;97.90;;;;;;5072651;28;20035;-62
2023/05/19 23:42:07;;;;;;;8.90;3.10;;;12.80;98.30;;;;;;5072207;28;20028;-66
2023/05/19 23:44:33;;;;;;;12.10;3.40;;;12.70;98.90;;;;;;5044851;28;20021;-61
2023/05/19 23:46:58;;;;;;;7.57;3.13;;;12.60;99.20;;;;;;5058950;28;20508;-60
2023/05/19 23:49:24;;;;;;;5.97;2.80;;;12.60;99.80;;;;;;5073124;28;20021;-60
2023/05/19 23:51:49;;;;;;;5.57;2.85;;;12.60;99.90;;;;;;5057244;28;20032;-60
2023/05/19 23:54:15;;;;;;;10.23;3.20;;;12.60;99.90;;;;;;5054799;28;20130;-61
2023/05/19 23:56:41;;;;;;;5.97;2.75;;;12.50;99.90;;;;;;5071531;28;20040;-62
2023/05/19 23:59:06;;;;;;;6.70;3.33;;;12.50;99.90;;;;;;5073202;28;20032;-60
